sensor_id;sensor_type;location;lat;lon;timestamp;pressure;altitude;pressure_sealevel;temperature;humidity
35307;BME280;21420;52.196;21.416;2023-12-20T00:02:16;99428.98;;;5.38;79.01
35307;BME280;21420;52.196;21.416;2023-12-20T00:04:43;99425.08;;;5.38;79.03
35307;BME280;21420;52.196;21.416;2023-12-20T00:07:10;99424.61;;;5.38;79.11
35307;BME280;21420;52.196;21.416;2023-12-20T00:09:37;99416.20;;;5.37;79.20
35307;BME280;21420;52.196;21.416;2023-12-20T00:12:04;99413.42;;;5.35;79.09
35307;BME280;21420;52.196;21.416;2023-12-20T00:14:31;99413.21;;;5.36;79.10
35307;BME280;21420;52.196;21.416;2023-12-20T00:16:58;99410.48;;;5.37;79.03
35307;BME280;21420;52.196;21.416;2023-12-20T00:19:25;99413.89;;;5.38;79.07
35307;BME280;21420;52.196;21.416;2023-12-20T00:21:52;99408.36;;;5.39;79.30
35307;BME280;21420;52.196;21.416;2023-12-20T00:24:18;99411.82;;;5.40;79.22
35307;BME280;21420;52.196;21.416;2023-12-20T00:26:45;99408.81;;;5.40;79.17
35307;BME280;21420;52.196;21.416;2023-12-20T00:29:12;99409.67;;;5.40;79.13
35307;BME280;21420;52.196;21.416;2023-12-20T00:31:38;99408.71;;;5.40;79.30
35307;BME280;21420;52.196;21.416;2023-12-20T00:34:05;99404.82;;;5.39;79.28
35307;BME280;21420;52.196;21.416;2023-12-20T00:36:33;99400.73;;;5.40;79.24
35307;BME280;21420;52.196;21.416;2023-12-20T00:38:59;99397.21;;;5.39;79.27
35307;BME280;21420;52.196;21.416;2023-12-20T00:41:27;99398.65;;;5.40;79.37
35307;BME280;21420;52.196;21.416;2023-12-20T00:43:53;99391.01;;;5.41;79.30
35307;BME280;21420;52.196;21.416;2023-12-20T00:46:20;99380.59;;;5.43;79.29
35307;BME280;21420;52.196;21.416;2023-12-20T00:48:47;99387.27;;;5.43;79.28
35307;BME280;21420;52.196;21.416;2023-12-20T00:51:14;99381.84;;;5.43;79.24
35307;BME280;21420;52.196;21.416;2023-12-20T00:53:41;99376.38;;;5.42;79.38
35307;BME280;21420;52.196;21.416;2023-12-20T00:56:07;99375.65;;;5.41;79.28
35307;BME280;21420;52.196;21.416;2023-12-20T00:58:34;99380.58;;;5.40;79.33
35307;BME280;21420;52.196;21.416;2023-12-20T01:01:01;99373.14;;;5.40;79.34
35307;BME280;21420;52.196;21.416;2023-12-20T01:03:28;99371.52;;;5.41;79.41
35307;BME280;21420;52.196;21.416;2023-12-20T01:05:55;99372.30;;;5.41;79.51
35307;BME280;21420;52.196;21.416;2023-12-20T01:08:22;99372.94;;;5.41;79.42
35307;BME280;21420;52.196;21.416;2023-12-20T01:10:49;99369.63;;;5.40;79.43
35307;BME280;21420;52.196;21.416;2023-12-20T01:13:16;99371.66;;;5.39;79.43
35307;BME280;21420;52.196;21.416;2023-12-20T01:15:43;99367.58;;;5.37;79.34
35307;BME280;21420;52.196;21.416;2023-12-20T01:18:09;99365.41;;;5.38;79.49
35307;BME280;21420;52.196;21.416;2023-12-20T01:20:36;99364.94;;;5.37;79.44
35307;BME280;21420;52.196;21.416;2023-12-20T01:23:03;99364.96;;;5.38;79.47
35307;BME280;21420;52.196;21.416;2023-12-20T01:25:30;99360.13;;;5.38;79.46
35307;BME280;21420;52.196;21.416;2023-12-20T01:27:57;99355.02;;;5.38;79.47
35307;BME280;21420;52.196;21.416;2023-12-20T01:30:24;99351.22;;;5.38;79.50
35307;BME280;21420;52.196;21.416;2023-12-20T01:32:51;99352.44;;;5.33;79.31
35307;BME280;21420;52.196;21.416;2023-12-20T01:35:18;99349.83;;;5.30;79.34
35307;BME280;21420;52.196;21.416;2023-12-20T01:37:45;99349.77;;;5.30;79.37
35307;BME280;21420;52.196;21.416;2023-12-20T01:40:13;99347.85;;;5.29;79.44
35307;BME280;21420;52.196;21.416;2023-12-20T01:42:40;99348.62;;;5.29;79.36
35307;BME280;21420;52.196;21.416;2023-12-20T01:45:08;99344.68;;;5.28;79.30
35307;BME280;21420;52.196;21.416;2023-12-20T01:47:35;99346.54;;;5.28;79.36
35307;BME280;21420;52.196;21.416;2023-12-20T01:50:03;99342.59;;;5.26;79.30
35307;BME280;21420;52.196;21.416;2023-12-20T01:52:31;99340.20;;;5.24;79.35
35307;BME280;21420;52.196;21.416;2023-12-20T01:55:01;99340.10;;;5.26;79.55
35307;BME280;21420;52.196;21.416;2023-12-20T01:57:30;99331.14;;;5.25;79.47
35307;BME280;21420;52.196;21.416;2023-12-20T01:59:57;99329.38;;;5.23;79.42
35307;BME280;21420;52.196;21.416;2023-12-20T02:02:27;99322.73;;;5.22;79.47
35307;BME280;21420;52.196;21.416;2023-12-20T02:04:54;99317.28;;;5.21;79.47
35307;BME280;21420;52.196;21.416;2023-12-20T02:07:22;99320.27;;;5.20;79.43
35307;BME280;21420;52.196;21.416;2023-12-20T02:09:50;99315.43;;;5.20;79.45
35307;BME280;21420;52.196;21.416;2023-12-20T02:12:19;99316.59;;;5.19;79.58
35307;BME280;21420;52.196;21.416;2023-12-20T02:14:46;99323.74;;;5.20;79.64
35307;BME280;21420;52.196;21.416;2023-12-20T02:17:12;99320.73;;;5.20;79.46
35307;BME280;21420;52.196;21.416;2023-12-20T02:19:39;99314.10;;;5.19;79.55
35307;BME280;21420;52.196;21.416;2023-12-20T02:22:13;99314.25;;;5.19;79.62
35307;BME280;21420;52.196;21.416;2023-12-20T02:24:39;99310.90;;;5.19;79.56
35307;BME280;21420;52.196;21.416;2023-12-20T02:27:07;99311.09;;;5.20;79.61
35307;BME280;21420;52.196;21.416;2023-12-20T02:29:35;99310.05;;;5.20;79.63
35307;BME280;21420;52.196;21.416;2023-12-20T02:32:02;99314.58;;;5.21;79.52
35307;BME280;21420;52.196;21.416;2023-12-20T02:34:29;99317.03;;;5.21;79.69
35307;BME280;21420;52.196;21.416;2023-12-20T02:36:56;99309.23;;;5.22;79.58
35307;BME280;21420;52.196;21.416;2023-12-20T02:39:23;99303.52;;;5.22;79.69
35307;BME280;21420;52.196;21.416;2023-12-20T02:41:50;99304.32;;;5.21;79.65
35307;BME280;21420;52.196;21.416;2023-12-20T02:44:16;99304.41;;;5.21;79.59
35307;BME280;21420;52.196;21.416;2023-12-20T02:46:43;99295.26;;;5.21;79.65
35307;BME280;21420;52.196;21.416;2023-12-20T02:49:10;99300.05;;;5.22;79.65
35307;BME280;21420;52.196;21.416;2023-12-20T02:51:37;99301.61;;;5.23;79.62
35307;BME280;21420;52.196;21.416;2023-12-20T02:54:07;99292.89;;;5.22;79.54
35307;BME280;21420;52.196;21.416;2023-12-20T02:56:33;99285.67;;;5.22;79.63
35307;BME280;21420;52.196;21.416;2023-12-20T02:59:01;99281.07;;;5.21;79.72
35307;BME280;21420;52.196;21.416;2023-12-20T03:01:29;99281.02;;;5.22;79.62
35307;BME280;21420;52.196;21.416;2023-12-20T03:03:56;99288.59;;;5.21;79.56
35307;BME280;21420;52.196;21.416;2023-12-20T03:06:24;99289.51;;;5.21;79.65
35307;BME280;21420;52.196;21.416;2023-12-20T03:08:51;99281.46;;;5.21;79.49
35307;BME280;21420;52.196;21.416;2023-12-20T03:11:18;99277.09;;;5.20;79.55
35307;BME280;21420;52.196;21.416;2023-12-20T03:13:45;99270.41;;;5.20;79.61
35307;BME280;21420;52.196;21.416;2023-12-20T03:19:34;99281.77;;;5.20;79.78
35307;BME280;21420;52.196;21.416;2023-12-20T03:22:01;99278.56;;;5.20;79.71
35307;BME280;21420;52.196;21.416;2023-12-20T03:24:28;99276.73;;;5.21;79.76
35307;BME280;21420;52.196;21.416;2023-12-20T03:26:55;99274.66;;;5.22;79.73
35307;BME280;21420;52.196;21.416;2023-12-20T03:29:22;99269.23;;;5.22;79.71
35307;BME280;21420;52.196;21.416;2023-12-20T03:31:48;99267.88;;;5.23;79.71
35307;BME280;21420;52.196;21.416;2023-12-20T03:34:16;99271.48;;;5.24;79.80
35307;BME280;21420;52.196;21.416;2023-12-20T03:36:44;99280.65;;;5.24;79.71
35307;BME280;21420;52.196;21.416;2023-12-20T03:39:10;99282.29;;;5.24;79.70
35307;BME280;21420;52.196;21.416;2023-12-20T03:41:37;99280.46;;;5.24;79.82
35307;BME280;21420;52.196;21.416;2023-12-20T03:44:04;99275.67;;;5.24;79.74
35307;BME280;21420;52.196;21.416;2023-12-20T03:46:31;99272.31;;;5.25;79.67
35307;BME280;21420;52.196;21.416;2023-12-20T03:48:58;99267.99;;;5.26;79.75
35307;BME280;21420;52.196;21.416;2023-12-20T03:51:27;99266.13;;;5.26;79.77
35307;BME280;21420;52.196;21.416;2023-12-20T03:53:54;99265.88;;;5.27;79.76
35307;BME280;21420;52.196;21.416;2023-12-20T03:56:21;99264.91;;;5.29;79.69
35307;BME280;21420;52.196;21.416;2023-12-20T03:58:47;99263.61;;;5.29;79.72
35307;BME280;21420;52.196;21.416;2023-12-20T04:01:14;99257.80;;;5.29;79.81
35307;BME280;21420;52.196;21.416;2023-12-20T04:03:42;99261.48;;;5.30;79.77
35307;BME280;21420;52.196;21.416;2023-12-20T04:06:08;99265.91;;;5.30;79.69
35307;BME280;21420;52.196;21.416;2023-12-20T04:08:36;99262.77;;;5.31;79.77
35307;BME280;21420;52.196;21.416;2023-12-20T04:11:03;99260.20;;;5.31;79.83
35307;BME280;21420;52.196;21.416;2023-12-20T04:13:30;99257.85;;;5.30;79.79
35307;BME280;21420;52.196;21.416;2023-12-20T04:15:56;99256.54;;;5.30;79.71
35307;BME280;21420;52.196;21.416;2023-12-20T04:18:23;99245.39;;;5.31;79.70
35307;BME280;21420;52.196;21.416;2023-12-20T04:20:50;99246.95;;;5.31;79.78
35307;BME280;21420;52.196;21.416;2023-12-20T04:23:18;99260.27;;;5.31;79.74
35307;BME280;21420;52.196;21.416;2023-12-20T04:25:46;99260.91;;;5.31;79.70
35307;BME280;21420;52.196;21.416;2023-12-20T04:28:13;99260.88;;;5.32;79.87
35307;BME280;21420;52.196;21.416;2023-12-20T04:30:40;99258.92;;;5.34;79.85
35307;BME280;21420;52.196;21.416;2023-12-20T04:33:07;99257.73;;;5.33;79.78
35307;BME280;21420;52.196;21.416;2023-12-20T04:35:34;99252.46;;;5.33;79.74
35307;BME280;21420;52.196;21.416;2023-12-20T04:38:00;99253.16;;;5.35;79.86
35307;BME280;21420;52.196;21.416;2023-12-20T04:40:27;99257.17;;;5.37;79.83
35307;BME280;21420;52.196;21.416;2023-12-20T04:42:54;99250.91;;;5.37;79.86
35307;BME280;21420;52.196;21.416;2023-12-20T04:45:21;99249.86;;;5.38;79.93
35307;BME280;21420;52.196;21.416;2023-12-20T04:47:48;99246.48;;;5.39;79.87
35307;BME280;21420;52.196;21.416;2023-12-20T04:50:15;99253.27;;;5.42;80.00
35307;BME280;21420;52.196;21.416;2023-12-20T04:52:42;99263.90;;;5.44;79.98
35307;BME280;21420;52.196;21.416;2023-12-20T04:55:09;99264.02;;;5.46;79.92
35307;BME280;21420;52.196;21.416;2023-12-20T04:57:36;99257.66;;;5.46;79.99
35307;BME280;21420;52.196;21.416;2023-12-20T05:00:03;99259.17;;;5.46;79.86
35307;BME280;21420;52.196;21.416;2023-12-20T05:02:31;99261.15;;;5.46;79.85
35307;BME280;21420;52.196;21.416;2023-12-20T05:04:58;99256.76;;;5.44;79.86
35307;BME280;21420;52.196;21.416;2023-12-20T05:07:25;99254.31;;;5.41;79.82
35307;BME280;21420;52.196;21.416;2023-12-20T05:09:52;99251.31;;;5.39;79.78
35307;BME280;21420;52.196;21.416;2023-12-20T05:12:19;99250.50;;;5.38;79.96
35307;BME280;21420;52.196;21.416;2023-12-20T05:14:46;99244.63;;;5.37;79.88
35307;BME280;21420;52.196;21.416;2023-12-20T05:17:13;99240.69;;;5.38;79.78
35307;BME280;21420;52.196;21.416;2023-12-20T05:19:40;99236.25;;;5.37;79.85
35307;BME280;21420;52.196;21.416;2023-12-20T05:22:07;99236.55;;;5.38;79.89
35307;BME280;21420;52.196;21.416;2023-12-20T05:24:34;99236.73;;;5.39;79.90
35307;BME280;21420;52.196;21.416;2023-12-20T05:27:00;99236.09;;;5.39;79.90
35307;BME280;21420;52.196;21.416;2023-12-20T05:29:27;99237.60;;;5.42;79.90
35307;BME280;21420;52.196;21.416;2023-12-20T05:31:54;99235.27;;;5.42;79.90
35307;BME280;21420;52.196;21.416;2023-12-20T05:34:21;99235.16;;;5.43;80.07
35307;BME280;21420;52.196;21.416;2023-12-20T05:36:48;99232.45;;;5.43;79.94
35307;BME280;21420;52.196;21.416;2023-12-20T05:39:15;99230.05;;;5.43;79.94
35307;BME280;21420;52.196;21.416;2023-12-20T05:41:41;99230.95;;;5.44;80.04
35307;BME280;21420;52.196;21.416;2023-12-20T05:44:09;99230.05;;;5.44;80.04
35307;BME280;21420;52.196;21.416;2023-12-20T05:46:36;99231.75;;;5.41;79.94
35307;BME280;21420;52.196;21.416;2023-12-20T05:49:03;99232.11;;;5.40;79.91
35307;BME280;21420;52.196;21.416;2023-12-20T05:51:30;99238.34;;;5.39;79.86
35307;BME280;21420;52.196;21.416;2023-12-20T05:53:56;99238.39;;;5.37;79.93
35307;BME280;21420;52.196;21.416;2023-12-20T05:56:23;99235.05;;;5.34;80.01
35307;BME280;21420;52.196;21.416;2023-12-20T05:58:50;99238.45;;;5.34;79.99
35307;BME280;21420;52.196;21.416;2023-12-20T06:01:17;99240.83;;;5.34;79.96
35307;BME280;21420;52.196;21.416;2023-12-20T06:03:44;99242.43;;;5.34;80.03
35307;BME280;21420;52.196;21.416;2023-12-20T06:06:12;99241.49;;;5.36;79.92
35307;BME280;21420;52.196;21.416;2023-12-20T06:08:43;99239.40;;;5.38;79.98
35307;BME280;21420;52.196;21.416;2023-12-20T06:11:11;99236.42;;;5.40;80.13
35307;BME280;21420;52.196;21.416;2023-12-20T06:13:37;99235.08;;;5.41;80.11
35307;BME280;21420;52.196;21.416;2023-12-20T06:16:05;99238.36;;;5.43;80.02
35307;BME280;21420;52.196;21.416;2023-12-20T06:18:34;99235.66;;;5.46;80.23
35307;BME280;21420;52.196;21.416;2023-12-20T06:21:00;99235.61;;;5.49;80.21
35307;BME280;21420;52.196;21.416;2023-12-20T06:23:27;99231.09;;;5.50;80.24
35307;BME280;21420;52.196;21.416;2023-12-20T06:25:54;99234.16;;;5.51;80.19
35307;BME280;21420;52.196;21.416;2023-12-20T06:28:21;99235.81;;;5.52;80.04
35307;BME280;21420;52.196;21.416;2023-12-20T06:30:48;99237.81;;;5.50;80.17
35307;BME280;21420;52.196;21.416;2023-12-20T06:33:16;99238.77;;;5.49;80.16
35307;BME280;21420;52.196;21.416;2023-12-20T06:35:45;99241.70;;;5.48;80.03
35307;BME280;21420;52.196;21.416;2023-12-20T06:38:12;99241.91;;;5.49;80.04
35307;BME280;21420;52.196;21.416;2023-12-20T06:40:38;99243.45;;;5.49;80.11
35307;BME280;21420;52.196;21.416;2023-12-20T06:43:06;99238.83;;;5.50;80.15
35307;BME280;21420;52.196;21.416;2023-12-20T06:45:46;99238.14;;;5.50;80.08
35307;BME280;21420;52.196;21.416;2023-12-20T06:48:14;99237.77;;;5.50;80.12
35307;BME280;21420;52.196;21.416;2023-12-20T06:50:40;99236.56;;;5.49;80.14
35307;BME280;21420;52.196;21.416;2023-12-20T06:53:07;99233.95;;;5.48;80.12
35307;BME280;21420;52.196;21.416;2023-12-20T06:55:37;99234.69;;;5.47;80.11
35307;BME280;21420;52.196;21.416;2023-12-20T06:58:04;99239.80;;;5.47;80.14
35307;BME280;21420;52.196;21.416;2023-12-20T07:00:32;99240.96;;;5.47;80.00
35307;BME280;21420;52.196;21.416;2023-12-20T07:02:59;99241.72;;;5.47;79.98
35307;BME280;21420;52.196;21.416;2023-12-20T07:05:26;99241.73;;;5.49;80.04
35307;BME280;21420;52.196;21.416;2023-12-20T07:07:53;99242.95;;;5.50;80.18
35307;BME280;21420;52.196;21.416;2023-12-20T07:10:21;99239.36;;;5.52;80.11
35307;BME280;21420;52.196;21.416;2023-12-20T07:12:48;99238.16;;;5.53;80.10
35307;BME280;21420;52.196;21.416;2023-12-20T07:15:15;99237.90;;;5.54;80.18
35307;BME280;21420;52.196;21.416;2023-12-20T07:17:44;99238.59;;;5.56;80.18
35307;BME280;21420;52.196;21.416;2023-12-20T07:20:12;99241.08;;;5.58;80.10
35307;BME280;21420;52.196;21.416;2023-12-20T07:22:39;99243.55;;;5.57;80.13
35307;BME280;21420;52.196;21.416;2023-12-20T07:25:07;99240.23;;;5.58;80.11
35307;BME280;21420;52.196;21.416;2023-12-20T07:27:34;99241.05;;;5.60;80.09
35307;BME280;21420;52.196;21.416;2023-12-20T07:30:00;99243.13;;;5.61;80.19
35307;BME280;21420;52.196;21.416;2023-12-20T07:32:27;99243.34;;;5.62;80.13
35307;BME280;21420;52.196;21.416;2023-12-20T07:34:54;99244.58;;;5.64;80.05
35307;BME280;21420;52.196;21.416;2023-12-20T07:37:21;99241.76;;;5.66;80.08
35307;BME280;21420;52.196;21.416;2023-12-20T07:39:51;99246.61;;;5.67;80.14
35307;BME280;21420;52.196;21.416;2023-12-20T07:42:18;99245.73;;;5.68;80.25
35307;BME280;21420;52.196;21.416;2023-12-20T07:44:45;99242.40;;;5.66;80.18
35307;BME280;21420;52.196;21.416;2023-12-20T07:47:12;99241.48;;;5.64;80.17
35307;BME280;21420;52.196;21.416;2023-12-20T07:49:42;99243.77;;;5.66;80.15
35307;BME280;21420;52.196;21.416;2023-12-20T07:52:10;99244.41;;;5.66;80.20
35307;BME280;21420;52.196;21.416;2023-12-20T07:54:37;99242.38;;;5.68;80.20
35307;BME280;21420;52.196;21.416;2023-12-20T07:57:05;99243.42;;;5.69;80.10
35307;BME280;21420;52.196;21.416;2023-12-20T07:59:31;99242.15;;;5.68;80.11
35307;BME280;21420;52.196;21.416;2023-12-20T08:01:59;99238.27;;;5.68;80.20
35307;BME280;21420;52.196;21.416;2023-12-20T08:04:26;99237.71;;;5.69;80.25
35307;BME280;21420;52.196;21.416;2023-12-20T08:06:54;99235.94;;;5.70;80.25
35307;BME280;21420;52.196;21.416;2023-12-20T08:09:21;99237.15;;;5.71;80.23
35307;BME280;21420;52.196;21.416;2023-12-20T08:11:48;99244.77;;;5.73;80.17
35307;BME280;21420;52.196;21.416;2023-12-20T08:14:15;99247.18;;;5.76;80.25
35307;BME280;21420;52.196;21.416;2023-12-20T08:16:42;99246.91;;;5.77;80.24
35307;BME280;21420;52.196;21.416;2023-12-20T08:19:09;99243.08;;;5.76;80.16
35307;BME280;21420;52.196;21.416;2023-12-20T08:21:36;99245.45;;;5.75;80.15
35307;BME280;21420;52.196;21.416;2023-12-20T08:24:05;99243.58;;;5.75;80.11
35307;BME280;21420;52.196;21.416;2023-12-20T08:26:32;99248.48;;;5.76;80.08
35307;BME280;21420;52.196;21.416;2023-12-20T08:29:00;99248.32;;;5.77;80.33
35307;BME280;21420;52.196;21.416;2023-12-20T08:31:28;99244.36;;;5.79;80.32
35307;BME280;21420;52.196;21.416;2023-12-20T08:33:56;99239.52;;;5.80;80.15
35307;BME280;21420;52.196;21.416;2023-12-20T08:36:23;99237.73;;;5.80;80.19
35307;BME280;21420;52.196;21.416;2023-12-20T08:38:50;99234.99;;;5.80;80.30
35307;BME280;21420;52.196;21.416;2023-12-20T08:41:18;99234.15;;;5.78;80.12
35307;BME280;21420;52.196;21.416;2023-12-20T08:43:45;99237.30;;;5.77;80.13
35307;BME280;21420;52.196;21.416;2023-12-20T08:46:11;99243.78;;;5.76;80.10
35307;BME280;21420;52.196;21.416;2023-12-20T08:48:39;99243.86;;;5.74;80.06
35307;BME280;21420;52.196;21.416;2023-12-20T08:51:06;99242.45;;;5.72;80.02
35307;BME280;21420;52.196;21.416;2023-12-20T08:53:35;99243.05;;;5.71;80.14
35307;BME280;21420;52.196;21.416;2023-12-20T08:56:02;99243.48;;;5.73;80.11
35307;BME280;21420;52.196;21.416;2023-12-20T08:58:29;99244.54;;;5.74;80.15
35307;BME280;21420;52.196;21.416;2023-12-20T09:00:56;99246.90;;;5.74;80.23
35307;BME280;21420;52.196;21.416;2023-12-20T09:03:24;99238.60;;;5.74;80.03
35307;BME280;21420;52.196;21.416;2023-12-20T09:05:51;99235.23;;;5.74;80.06
35307;BME280;21420;52.196;21.416;2023-12-20T09:08:18;99229.59;;;5.74;80.20
35307;BME280;21420;52.196;21.416;2023-12-20T09:10:45;99221.70;;;5.73;80.11
35307;BME280;21420;52.196;21.416;2023-12-20T09:13:12;99216.55;;;5.74;80.10
35307;BME280;21420;52.196;21.416;2023-12-20T09:15:39;99219.75;;;5.75;80.25
35307;BME280;21420;52.196;21.416;2023-12-20T09:18:06;99216.12;;;5.75;80.36
35307;BME280;21420;52.196;21.416;2023-12-20T09:20:34;99216.34;;;5.75;80.11
35307;BME280;21420;52.196;21.416;2023-12-20T09:23:01;99210.68;;;5.75;80.10
35307;BME280;21420;52.196;21.416;2023-12-20T09:25:28;99210.83;;;5.77;80.18
35307;BME280;21420;52.196;21.416;2023-12-20T09:27:55;99203.23;;;5.77;80.19
35307;BME280;21420;52.196;21.416;2023-12-20T09:30:22;99201.38;;;5.76;80.17
35307;BME280;21420;52.196;21.416;2023-12-20T09:32:54;99198.02;;;5.73;79.97
35307;BME280;21420;52.196;21.416;2023-12-20T09:35:21;99193.20;;;5.71;80.18
35307;BME280;21420;52.196;21.416;2023-12-20T09:37:49;99191.85;;;5.70;80.17
35307;BME280;21420;52.196;21.416;2023-12-20T09:40:18;99189.69;;;5.70;80.13
35307;BME280;21420;52.196;21.416;2023-12-20T09:43:15;99185.11;;;5.70;80.09
35307;BME280;21420;52.196;21.416;2023-12-20T09:45:46;99184.05;;;5.71;80.09
35307;BME280;21420;52.196;21.416;2023-12-20T09:48:13;99175.98;;;5.73;80.15
35307;BME280;21420;52.196;21.416;2023-12-20T09:50:43;99173.31;;;5.74;80.22
35307;BME280;21420;52.196;21.416;2023-12-20T09:53:19;99174.35;;;5.73;80.10
35307;BME280;21420;52.196;21.416;2023-12-20T09:55:46;99172.27;;;5.71;80.18
35307;BME280;21420;52.196;21.416;2023-12-20T09:58:13;99169.32;;;5.73;80.18
35307;BME280;21420;52.196;21.416;2023-12-20T10:00:40;99170.41;;;5.73;80.11
35307;BME280;21420;52.196;21.416;2023-12-20T10:03:08;99164.75;;;5.73;80.15
35307;BME280;21420;52.196;21.416;2023-12-20T10:05:36;99165.70;;;5.74;80.28
35307;BME280;21420;52.196;21.416;2023-12-20T10:08:03;99165.45;;;5.76;80.20
35307;BME280;21420;52.196;21.416;2023-12-20T10:10:32;99162.85;;;5.77;80.16
35307;BME280;21420;52.196;21.416;2023-12-20T10:13:14;99166.25;;;5.76;80.08
35307;BME280;21420;52.196;21.416;2023-12-20T10:15:41;99166.51;;;5.77;80.13
35307;BME280;21420;52.196;21.416;2023-12-20T10:18:09;99165.54;;;5.78;80.08
35307;BME280;21420;52.196;21.416;2023-12-20T10:20:37;99168.71;;;5.76;80.11
35307;BME280;21420;52.196;21.416;2023-12-20T10:23:04;99167.40;;;5.76;80.17
35307;BME280;21420;52.196;21.416;2023-12-20T10:25:31;99168.70;;;5.75;80.12
35307;BME280;21420;52.196;21.416;2023-12-20T10:28:12;99162.67;;;5.74;80.00
35307;BME280;21420;52.196;21.416;2023-12-20T10:30:41;99158.15;;;5.73;80.05
35307;BME280;21420;52.196;21.416;2023-12-20T10:33:08;99160.41;;;5.73;80.20
35307;BME280;21420;52.196;21.416;2023-12-20T10:35:38;99153.65;;;5.74;80.19
35307;BME280;21420;52.196;21.416;2023-12-20T10:38:10;99157.04;;;5.75;80.12
35307;BME280;21420;52.196;21.416;2023-12-20T10:40:38;99156.02;;;5.77;80.23
35307;BME280;21420;52.196;21.416;2023-12-20T10:43:05;99150.84;;;5.77;80.30
35307;BME280;21420;52.196;21.416;2023-12-20T10:45:33;99147.58;;;5.75;80.15
35307;BME280;21420;52.196;21.416;2023-12-20T10:48:01;99147.02;;;5.75;80.25
35307;BME280;21420;52.196;21.416;2023-12-20T10:50:30;99143.45;;;5.75;80.39
35307;BME280;21420;52.196;21.416;2023-12-20T10:52:58;99137.42;;;5.75;80.21
35307;BME280;21420;52.196;21.416;2023-12-20T10:55:25;99142.25;;;5.74;80.13
35307;BME280;21420;52.196;21.416;2023-12-20T10:58:00;99138.71;;;5.72;80.02
35307;BME280;21420;52.196;21.416;2023-12-20T11:00:31;99139.02;;;5.70;80.08
35307;BME280;21420;52.196;21.416;2023-12-20T11:03:00;99137.39;;;5.68;80.16
35307;BME280;21420;52.196;21.416;2023-12-20T11:05:53;99133.10;;;5.67;80.11
35307;BME280;21420;52.196;21.416;2023-12-20T11:08:33;99129.16;;;5.68;80.29
35307;BME280;21420;52.196;21.416;2023-12-20T11:11:07;99122.79;;;5.70;80.18
35307;BME280;21420;52.196;21.416;2023-12-20T11:14:02;99123.42;;;5.70;80.10
35307;BME280;21420;52.196;21.416;2023-12-20T11:16:27;99120.44;;;5.69;80.01
35307;BME280;21420;52.196;21.416;2023-12-20T11:19:07;99120.55;;;5.70;80.19
35307;BME280;21420;52.196;21.416;2023-12-20T11:21:34;99114.23;;;5.72;80.25
35307;BME280;21420;52.196;21.416;2023-12-20T11:24:02;99110.15;;;5.72;80.22
35307;BME280;21420;52.196;21.416;2023-12-20T11:26:30;99107.59;;;5.72;80.34
35307;BME280;21420;52.196;21.416;2023-12-20T11:29:32;99104.20;;;5.71;80.25
35307;BME280;21420;52.196;21.416;2023-12-20T11:32:01;99099.39;;;5.71;80.27
35307;BME280;21420;52.196;21.416;2023-12-20T11:34:29;99101.17;;;5.71;80.12
35307;BME280;21420;52.196;21.416;2023-12-20T11:36:59;99090.86;;;5.71;80.13
35307;BME280;21420;52.196;21.416;2023-12-20T11:39:28;99085.11;;;5.73;80.10
35307;BME280;21420;52.196;21.416;2023-12-20T11:41:56;99084.54;;;5.77;80.39
35307;BME280;21420;52.196;21.416;2023-12-20T11:44:25;99081.73;;;5.76;80.28
35307;BME280;21420;52.196;21.416;2023-12-20T11:46:54;99081.37;;;5.77;80.24
35307;BME280;21420;52.196;21.416;2023-12-20T11:49:25;99075.71;;;5.77;80.12
35307;BME280;21420;52.196;21.416;2023-12-20T11:51:52;99070.58;;;5.77;80.21
35307;BME280;21420;52.196;21.416;2023-12-20T11:54:19;99067.40;;;5.77;80.21
35307;BME280;21420;52.196;21.416;2023-12-20T11:56:47;99069.02;;;5.76;80.22
35307;BME280;21420;52.196;21.416;2023-12-20T11:59:14;99065.69;;;5.77;80.27
35307;BME280;21420;52.196;21.416;2023-12-20T12:01:52;99065.29;;;5.77;80.22
35307;BME280;21420;52.196;21.416;2023-12-20T12:04:19;99062.80;;;5.77;80.36
35307;BME280;21420;52.196;21.416;2023-12-20T12:06:46;99060.95;;;5.77;80.20
35307;BME280;21420;52.196;21.416;2023-12-20T12:09:13;99063.42;;;5.76;80.23
35307;BME280;21420;52.196;21.416;2023-12-20T12:11:41;99063.66;;;5.77;80.24
35307;BME280;21420;52.196;21.416;2023-12-20T12:14:09;99056.99;;;5.77;80.17
35307;BME280;21420;52.196;21.416;2023-12-20T12:16:36;99051.91;;;5.76;79.98
35307;BME280;21420;52.196;21.416;2023-12-20T12:19:03;99049.86;;;5.75;80.01
35307;BME280;21420;52.196;21.416;2023-12-20T12:21:31;99042.21;;;5.73;80.18
35307;BME280;21420;52.196;21.416;2023-12-20T12:24:07;99040.91;;;5.72;80.16
35307;BME280;21420;52.196;21.416;2023-12-20T12:26:34;99035.98;;;5.71;80.01
35307;BME280;21420;52.196;21.416;2023-12-20T12:29:00;99037.49;;;5.72;80.14
35307;BME280;21420;52.196;21.416;2023-12-20T12:31:27;99034.98;;;5.73;80.15
35307;BME280;21420;52.196;21.416;2023-12-20T12:33:54;99033.04;;;5.73;80.08
35307;BME280;21420;52.196;21.416;2023-12-20T12:36:22;99029.44;;;5.72;80.18
35307;BME280;21420;52.196;21.416;2023-12-20T12:38:49;99026.23;;;5.69;80.11
35307;BME280;21420;52.196;21.416;2023-12-20T12:41:16;99029.24;;;5.69;80.15
35307;BME280;21420;52.196;21.416;2023-12-20T12:43:43;99023.80;;;5.68;80.26
35307;BME280;21420;52.196;21.416;2023-12-20T12:46:10;99020.48;;;5.67;80.32
35307;BME280;21420;52.196;21.416;2023-12-20T12:48:36;99017.58;;;5.63;80.31
35307;BME280;21420;52.196;21.416;2023-12-20T12:51:03;99013.77;;;5.60;80.22
35307;BME280;21420;52.196;21.416;2023-12-20T12:53:30;99006.73;;;5.57;80.26
35307;BME280;21420;52.196;21.416;2023-12-20T12:55:57;99013.05;;;5.53;80.13
35307;BME280;21420;52.196;21.416;2023-12-20T12:58:24;99017.30;;;5.51;80.00
35307;BME280;21420;52.196;21.416;2023-12-20T13:00:52;99015.75;;;5.49;80.00
35307;BME280;21420;52.196;21.416;2023-12-20T13:03:19;99017.52;;;5.46;80.00
35307;BME280;21420;52.196;21.416;2023-12-20T13:05:46;99012.04;;;5.45;80.10
35307;BME280;21420;52.196;21.416;2023-12-20T13:08:15;99021.81;;;5.42;80.17